Terminal Aerodrome Forecast
Issued by NWS

Home | Current Version | Previous Version | Text Only | Print | Product List | Glossary On
Versions: 1 2 3 4 5 6 7 8 9 10 11 12 13 14 15 16 17
344
FTUS45 KRIW 191136
TAFBPI
TAF
KBPI 191136Z 1912/2012 17011KT 4SM -SN SCT015 OVC035
      TEMPO 1912/1915 1 1/2SM -SN BKN015
     FM200300 18006KT P6SM SCT035 BKN060=

USA.gov is the U.S. government's official web portal to all federal, state and local government web resources and services.